createdAt,value
2022-10-11T00:00:44.175Z,8.77
2022-10-11T00:03:06.069Z,9.10
2022-10-11T00:05:28.168Z,9.33
2022-10-11T00:07:49.758Z,8.63
2022-10-11T00:10:11.275Z,7.90
2022-10-11T00:12:34.575Z,7.50
2022-10-11T00:14:56.035Z,8.27
2022-10-11T00:17:17.527Z,7.77
2022-10-11T00:19:38.973Z,7.03
2022-10-11T00:22:00.453Z,8.10
2022-10-11T00:24:21.933Z,7.67
2022-10-11T00:26:46.851Z,8.00
2022-10-11T00:29:08.666Z,7.33
2022-10-11T00:31:35.376Z,7.17
2022-10-11T00:33:57.457Z,6.60
2022-10-11T00:36:18.962Z,6.87
2022-10-11T00:38:40.478Z,6.27
2022-10-11T00:41:02.077Z,6.90
2022-10-11T00:43:26.392Z,6.07
2022-10-11T00:45:56.657Z,5.63
2022-10-11T00:48:41.162Z,5.90
2022-10-11T00:51:06.566Z,5.17
2022-10-11T00:53:30.914Z,4.67
2022-10-11T00:56:01.498Z,4.40
2022-10-11T00:58:24.053Z,4.57
2022-10-11T01:00:46.039Z,3.93
2022-10-11T01:03:07.578Z,3.73
2022-10-11T01:05:30.642Z,3.40
2022-10-11T01:07:53.812Z,2.97
2022-10-11T01:10:15.393Z,3.40
2022-10-11T01:12:48.782Z,2.63
2022-10-11T01:15:16.080Z,2.50
2022-10-11T01:17:37.489Z,2.53
2022-10-11T01:20:08.584Z,2.40
2022-10-11T01:22:51.628Z,2.40
2022-10-11T01:25:28.633Z,1.90
2022-10-11T01:28:07.457Z,3.03
2022-10-11T01:30:31.470Z,2.67
2022-10-11T01:33:17.666Z,2.40
2022-10-11T01:35:57.358Z,2.20
2022-10-11T01:38:30.117Z,2.03
2022-10-11T01:40:57.586Z,2.40
2022-10-11T01:43:20.694Z,2.00
2022-10-11T01:45:43.422Z,2.10
2022-10-11T01:48:10.871Z,2.53
2022-10-11T01:50:48.341Z,2.43
2022-10-11T01:53:24.482Z,2.43
2022-10-11T01:55:55.329Z,2.20
2022-10-11T01:58:32.573Z,2.23
2022-10-11T02:01:08.932Z,2.87
2022-10-11T02:04:00.517Z,2.17
2022-10-11T02:06:39.646Z,2.47
2022-10-11T02:09:09.362Z,2.30
2022-10-11T02:11:33.656Z,2.43
2022-10-11T02:14:16.237Z,2.30
2022-10-11T02:16:43.573Z,2.30
2022-10-11T02:19:08.156Z,2.40
2022-10-11T02:21:31.186Z,2.57
2022-10-11T02:24:02.219Z,2.83
2022-10-11T02:26:27.592Z,2.27
2022-10-11T02:28:53.041Z,2.20
2022-10-11T02:31:17.002Z,2.33
2022-10-11T02:33:47.813Z,2.30
2022-10-11T02:36:21.921Z,2.67
2022-10-11T02:38:49.873Z,2.60
2022-10-11T02:41:21.416Z,2.43
2022-10-11T02:43:51.802Z,2.07
2022-10-11T02:46:17.494Z,2.67
2022-10-11T02:48:39.834Z,2.37
2022-10-11T02:51:03.469Z,1.97
2022-10-11T02:53:26.495Z,2.60
2022-10-11T02:55:49.410Z,2.40
2022-10-11T02:58:10.843Z,1.87
2022-10-11T03:00:32.375Z,2.20
2022-10-11T03:02:53.864Z,2.73
2022-10-11T03:05:15.637Z,2.10
2022-10-11T03:07:37.139Z,2.53
2022-10-11T03:09:58.663Z,2.30
2022-10-11T03:12:20.161Z,2.83
2022-10-11T03:14:41.650Z,2.47
2022-10-11T03:17:17.579Z,2.60
2022-10-11T03:19:44.646Z,3.07
2022-10-11T03:22:06.159Z,2.60
2022-10-11T03:24:27.603Z,2.50
2022-10-11T03:26:49.043Z,4.63
2022-10-11T03:29:10.559Z,2.70
2022-10-11T03:31:32.041Z,3.00
2022-10-11T03:33:53.550Z,2.43
2022-10-11T03:36:15.032Z,2.57
2022-10-11T03:38:36.606Z,2.60
2022-10-11T03:40:58.056Z,2.77
2022-10-11T03:43:19.634Z,2.47
2022-10-11T03:45:43.767Z,1.87
2022-10-11T03:48:05.531Z,2.33
2022-10-11T03:50:27.068Z,1.97
2022-10-11T03:52:48.660Z,2.13
2022-10-11T03:55:10.138Z,2.10
2022-10-11T03:57:31.612Z,2.00
2022-10-11T03:59:53.106Z,2.33
2022-10-11T04:02:15.166Z,2.53
2022-10-11T04:04:36.717Z,2.17
2022-10-11T04:06:58.204Z,2.43
2022-10-11T04:09:19.717Z,2.30
2022-10-11T04:11:41.236Z,2.50
2022-10-11T04:14:02.750Z,1.93
2022-10-11T04:16:24.262Z,2.37
2022-10-11T04:18:45.782Z,3.17
2022-10-11T04:21:07.486Z,2.63
2022-10-11T04:23:31.064Z,2.40
2022-10-11T04:25:52.525Z,2.47
2022-10-11T04:28:14.760Z,2.30
2022-10-11T04:30:36.447Z,2.30
2022-10-11T04:32:58.027Z,2.47
2022-10-11T04:35:19.480Z,2.50
2022-10-11T04:37:40.997Z,2.00
2022-10-11T04:40:03.292Z,2.23
2022-10-11T04:42:24.803Z,1.90
2022-10-11T04:44:46.636Z,2.13
2022-10-11T04:47:08.128Z,2.13
2022-10-11T04:49:29.578Z,2.77
2022-10-11T04:51:51.126Z,2.10
2022-10-11T04:54:12.621Z,1.60
2022-10-11T04:56:34.083Z,2.27
2022-10-11T04:58:55.551Z,2.13
2022-10-11T05:01:17.050Z,2.40
2022-10-11T05:03:38.495Z,2.53
2022-10-11T05:06:05.239Z,4.93
2022-10-11T05:08:27.362Z,16.43
2022-10-11T05:10:59.980Z,18.27
2022-10-11T05:13:21.442Z,13.90
2022-10-11T05:15:42.921Z,15.77
2022-10-11T05:18:04.433Z,14.37
2022-10-11T05:20:26.437Z,11.00
2022-10-11T05:22:48.021Z,9.70
2022-10-11T05:25:09.574Z,8.00
2022-10-11T05:27:31.044Z,4.97
2022-10-11T05:29:52.504Z,4.03
2022-10-11T05:32:14.019Z,4.10
2022-10-11T05:34:35.475Z,3.57
2022-10-11T05:36:57.221Z,3.47
2022-10-11T05:39:18.673Z,4.03
2022-10-11T05:41:40.159Z,3.80
2022-10-11T05:44:01.681Z,3.30
2022-10-11T05:46:23.218Z,4.40
2022-10-11T05:48:44.726Z,4.03
2022-10-11T05:51:09.913Z,3.30
2022-10-11T05:53:32.078Z,3.73
2022-10-11T05:55:53.517Z,3.03
2022-10-11T05:58:17.304Z,3.40
2022-10-11T06:00:38.841Z,2.47
2022-10-11T06:03:00.352Z,1.60
2022-10-11T06:05:21.950Z,1.93
2022-10-11T06:07:43.465Z,1.77
2022-10-11T06:10:06.689Z,2.70
2022-10-11T06:12:30.053Z,1.90
2022-10-11T06:14:51.496Z,2.03
2022-10-11T06:17:13.264Z,2.67
2022-10-11T06:19:34.803Z,2.37
2022-10-11T06:21:56.287Z,2.83
2022-10-11T06:24:18.686Z,3.27
2022-10-11T06:26:40.306Z,2.90
2022-10-11T06:29:01.887Z,3.87
2022-10-11T06:31:23.443Z,2.90
2022-10-11T06:33:44.966Z,3.90
2022-10-11T06:36:12.516Z,7.83
2022-10-11T06:38:34.148Z,10.63
2022-10-11T06:40:55.642Z,10.57
2022-10-11T06:43:17.143Z,12.07
2022-10-11T06:45:38.628Z,9.23
2022-10-11T06:48:01.857Z,7.10
2022-10-11T06:50:47.318Z,5.63
2022-10-11T06:53:06.868Z,4.50
2022-10-11T06:55:28.405Z,7.00
2022-10-11T06:57:49.889Z,11.50
2022-10-11T07:00:12.920Z,10.63
2022-10-11T07:02:34.503Z,11.90
2022-10-11T07:04:55.960Z,12.60
2022-10-11T07:07:17.421Z,10.70
2022-10-11T07:09:38.881Z,11.37
2022-10-11T07:12:00.363Z,14.10
2022-10-11T07:14:21.851Z,14.40
2022-10-11T07:16:43.434Z,14.83
2022-10-11T07:19:06.549Z,15.27
2022-10-11T07:21:30.403Z,16.27
2022-10-11T07:23:52.011Z,15.57
2022-10-11T07:26:13.596Z,15.53
2022-10-11T07:28:36.528Z,15.10
2022-10-11T07:30:59.088Z,14.70
2022-10-11T07:33:20.577Z,12.93
2022-10-11T07:35:46.003Z,12.93
2022-10-11T07:38:10.147Z,12.00
2022-10-11T07:40:32.479Z,13.23
2022-10-11T07:42:54.258Z,10.93
2022-10-11T07:45:15.750Z,10.03
2022-10-11T07:47:37.235Z,8.77
2022-10-11T07:49:58.843Z,8.20
2022-10-11T07:52:20.292Z,8.40
2022-10-11T07:54:41.769Z,9.60
2022-10-11T07:57:03.243Z,7.80
2022-10-11T07:59:24.826Z,7.63
2022-10-11T08:01:46.712Z,7.50
2022-10-11T08:04:08.235Z,8.07
2022-10-11T08:06:32.745Z,7.70
2022-10-11T08:08:54.902Z,6.23
2022-10-11T08:11:34.652Z,6.13
2022-10-11T08:13:56.986Z,4.47
2022-10-11T08:16:19.405Z,3.83
2022-10-11T08:18:40.935Z,4.07
2022-10-11T08:21:07.088Z,3.57
2022-10-11T08:23:28.652Z,4.07
2022-10-11T08:25:50.142Z,4.00
2022-10-11T08:28:16.889Z,3.43
2022-10-11T08:30:38.392Z,3.60
2022-10-11T08:33:00.896Z,3.37
2022-10-11T08:35:24.807Z,3.57
2022-10-11T08:37:47.101Z,3.80
2022-10-11T08:40:13.179Z,3.63
2022-10-11T08:42:42.360Z,3.83
2022-10-11T08:45:18.622Z,3.50
2022-10-11T08:47:43.148Z,3.20
2022-10-11T08:50:07.545Z,3.50
2022-10-11T08:52:53.631Z,3.83
2022-10-11T08:55:26.079Z,3.70
2022-10-11T08:57:53.218Z,4.13
2022-10-11T09:00:17.114Z,3.80
2022-10-11T09:03:08.480Z,4.57
2022-10-11T09:05:35.542Z,3.53
2022-10-11T09:08:23.363Z,3.00
2022-10-11T09:10:44.755Z,3.73
2022-10-11T09:13:41.700Z,3.13
2022-10-11T09:16:21.786Z,3.73
2022-10-11T09:18:58.361Z,3.10
2022-10-11T09:21:36.606Z,3.73
2022-10-11T09:24:22.600Z,3.00
2022-10-11T09:27:18.081Z,3.30
2022-10-11T09:30:00.466Z,2.77
2022-10-11T09:32:23.135Z,2.90
2022-10-11T09:34:44.608Z,3.10
2022-10-11T09:37:12.107Z,3.10
2022-10-11T09:39:36.426Z,2.50
2022-10-11T09:42:08.884Z,3.07
2022-10-11T09:44:35.548Z,3.37
2022-10-11T09:46:58.204Z,2.73
2022-10-11T09:49:22.725Z,2.83
2022-10-11T09:51:52.601Z,2.70
2022-10-11T09:54:14.071Z,3.00
2022-10-11T09:56:41.920Z,2.37
2022-10-11T09:59:26.173Z,2.87
2022-10-11T10:01:47.684Z,3.13
2022-10-11T10:04:12.772Z,2.50
2022-10-11T10:06:34.535Z,3.03
2022-10-11T10:09:26.393Z,2.47
2022-10-11T10:11:48.160Z,2.40
2022-10-11T10:14:20.317Z,2.30
2022-10-11T10:16:41.935Z,2.60
2022-10-11T10:19:07.230Z,2.97
2022-10-11T10:21:36.789Z,2.87
2022-10-11T10:24:03.186Z,5.40
2022-10-11T10:26:26.686Z,2.97
2022-10-11T10:29:18.610Z,2.63
2022-10-11T10:34:36.428Z,2.67
2022-10-11T10:37:09.451Z,3.00
2022-10-11T10:39:39.613Z,2.73
2022-10-11T10:42:05.027Z,2.40
2022-10-11T10:44:26.504Z,2.37
2022-10-11T10:47:10.185Z,2.57
2022-10-11T10:49:54.185Z,2.57
2022-10-11T10:52:39.071Z,2.20
2022-10-11T10:55:12.484Z,2.10
2022-10-11T10:58:02.332Z,2.30
2022-10-11T11:00:25.074Z,2.60
2022-10-11T11:03:03.449Z,2.13
2022-10-11T11:05:48.301Z,2.17
2022-10-11T11:08:12.405Z,1.87
2022-10-11T11:10:53.191Z,2.60
2022-10-11T11:13:26.718Z,2.43
2022-10-11T11:16:04.026Z,1.97
2022-10-11T11:18:51.788Z,2.70
2022-10-11T11:21:48.127Z,2.00
2022-10-11T11:24:31.658Z,2.20
2022-10-11T11:27:21.856Z,2.80
2022-10-11T11:29:55.902Z,1.80
2022-10-11T11:32:44.846Z,2.10
2022-10-11T11:35:28.501Z,1.93
2022-10-11T11:37:59.261Z,2.33
2022-10-11T11:40:35.397Z,2.10
2022-10-11T11:43:05.001Z,2.07
2022-10-11T11:45:37.779Z,1.70
2022-10-11T11:48:03.935Z,2.70
2022-10-11T11:50:27.915Z,2.30
2022-10-11T11:52:55.651Z,2.70
2022-10-11T11:55:17.049Z,1.70
2022-10-11T11:58:03.310Z,2.30
2022-10-11T12:00:35.010Z,2.37
2022-10-11T12:02:59.232Z,1.93
2022-10-11T12:05:25.392Z,2.37
2022-10-11T12:08:06.373Z,2.10
2022-10-11T12:10:31.695Z,1.80
2022-10-11T12:13:31.991Z,2.17
2022-10-11T12:16:06.061Z,1.77
2022-10-11T12:18:30.648Z,2.40
2022-10-11T12:21:30.644Z,2.10
2022-10-11T12:24:11.501Z,1.93
2022-10-11T12:26:54.080Z,2.22
2022-10-11T12:29:18.550Z,2.10
2022-10-11T12:31:45.166Z,1.87
2022-10-11T12:34:10.209Z,2.30
2022-10-11T12:36:36.737Z,1.98
2022-10-11T12:39:40.811Z,2.38
2022-10-11T12:42:08.359Z,1.90
2022-10-11T12:44:30.368Z,1.52
2022-10-11T12:46:53.611Z,1.92
2022-10-11T12:49:31.103Z,1.83
2022-10-11T12:52:01.312Z,1.95
2022-10-11T12:54:40.799Z,2.20
2022-10-11T12:57:11.862Z,2.58
2022-10-11T12:59:34.504Z,2.30
2022-10-11T13:01:59.030Z,1.95
2022-10-11T13:04:31.531Z,2.45
2022-10-11T13:06:56.860Z,1.98
2022-10-11T13:09:39.285Z,1.65
2022-10-11T13:12:31.476Z,1.90
2022-10-11T13:15:06.973Z,2.45
2022-10-11T13:17:38.280Z,1.98
2022-10-11T13:20:17.271Z,2.00
2022-10-11T13:22:40.018Z,2.00
2022-10-11T13:25:05.907Z,2.10
2022-10-11T13:27:27.847Z,2.00
2022-10-11T13:29:51.619Z,2.15
2022-10-11T13:32:19.794Z,1.60
2022-10-11T13:34:44.177Z,2.22
2022-10-11T13:37:07.075Z,2.13
2022-10-11T13:39:39.153Z,1.95
2022-10-11T13:42:03.486Z,1.85
2022-10-11T13:44:26.523Z,1.92
2022-10-11T13:46:48.717Z,4.15
2022-10-11T13:49:40.146Z,2.90
2022-10-11T13:52:04.081Z,2.30
2022-10-11T13:54:25.842Z,1.67
2022-10-11T13:56:51.545Z,1.80
2022-10-11T13:59:20.250Z,2.00
2022-10-11T14:01:45.352Z,1.83
2022-10-11T14:04:09.718Z,2.03
2022-10-11T14:06:42.402Z,1.90
2022-10-11T14:09:04.079Z,1.98
2022-10-11T14:11:39.584Z,1.50
2022-10-11T14:14:21.044Z,1.80
2022-10-11T14:16:55.533Z,1.92
2022-10-11T14:19:19.225Z,2.20
2022-10-11T14:21:46.600Z,2.00
2022-10-11T14:24:10.587Z,2.13
2022-10-11T14:26:36.020Z,1.98
2022-10-11T14:29:00.812Z,2.20
2022-10-11T14:31:22.370Z,2.10
2022-10-11T14:33:43.927Z,1.80
2022-10-11T14:36:05.853Z,1.85
2022-10-11T14:38:27.420Z,1.75
2022-10-11T14:40:48.867Z,2.50
2022-10-11T14:43:10.332Z,2.20
2022-10-11T14:45:31.810Z,2.45
2022-10-11T14:47:53.583Z,1.70
2022-10-11T14:50:32.960Z,2.05
2022-10-11T14:52:55.079Z,1.90
2022-10-11T14:55:16.772Z,1.80
2022-10-11T14:57:38.269Z,1.60
2022-10-11T14:59:59.737Z,2.08
2022-10-11T15:02:21.235Z,2.20
2022-10-11T15:04:42.717Z,1.80
2022-10-11T15:07:04.791Z,2.53
2022-10-11T15:09:26.302Z,2.38
2022-10-11T15:11:49.656Z,2.40
2022-10-11T15:14:11.129Z,2.33
2022-10-11T15:16:33.366Z,1.92
2022-10-11T15:18:54.868Z,2.13
2022-10-11T15:21:21.184Z,3.30
2022-10-11T15:23:42.697Z,2.75
2022-10-11T15:26:04.769Z,2.35
2022-10-11T15:28:31.926Z,2.25
2022-10-11T15:30:54.800Z,2.45
2022-10-11T15:33:16.277Z,2.38
2022-10-11T15:35:37.730Z,2.30
2022-10-11T15:38:00.271Z,2.50
2022-10-11T15:40:33.624Z,2.67
2022-10-11T15:42:55.165Z,2.10
2022-10-11T15:45:17.746Z,2.53
2022-10-11T15:47:39.540Z,2.42
2022-10-11T15:50:01.041Z,3.20
2022-10-11T15:52:22.516Z,3.38
2022-10-11T15:54:43.953Z,2.95
2022-10-11T15:57:05.431Z,2.25
2022-10-11T15:59:26.894Z,2.30
2022-10-11T16:01:48.478Z,2.47
2022-10-11T16:04:10.347Z,3.97
2022-10-11T16:06:33.299Z,3.33
2022-10-11T16:08:54.774Z,3.17
2022-10-11T16:11:16.500Z,2.67
2022-10-11T16:13:38.150Z,2.77
2022-10-11T16:16:04.286Z,2.60
2022-10-11T16:18:26.068Z,2.97
2022-10-11T16:20:51.063Z,2.40
2022-10-11T16:23:13.925Z,2.63
2022-10-11T16:25:35.817Z,4.33
2022-10-11T16:27:57.300Z,4.03
2022-10-11T16:30:19.611Z,3.40
2022-10-11T16:32:41.612Z,2.03
2022-10-11T16:35:03.129Z,2.20
2022-10-11T16:37:24.650Z,2.33
2022-10-11T16:39:46.364Z,2.10
2022-10-11T16:42:07.945Z,2.00
2022-10-11T16:44:29.544Z,2.30
2022-10-11T16:46:51.684Z,2.07
2022-10-11T16:49:13.155Z,1.93
2022-10-11T16:51:34.682Z,1.70
2022-10-11T16:53:56.324Z,1.70
2022-10-11T16:56:20.463Z,1.93
2022-10-11T16:58:41.930Z,1.87
2022-10-11T17:01:08.909Z,1.90
2022-10-11T17:03:30.442Z,2.23
2022-10-11T17:05:51.987Z,1.90
2022-10-11T17:08:13.430Z,3.00
2022-10-11T17:10:44.264Z,3.10
2022-10-11T17:13:06.798Z,2.67
2022-10-11T17:15:30.094Z,1.80
2022-10-11T17:17:55.040Z,3.03
2022-10-11T17:20:16.670Z,2.50
2022-10-11T17:22:38.139Z,3.00
2022-10-11T17:25:01.466Z,4.00
2022-10-11T17:27:23.004Z,2.63
2022-10-11T17:29:44.472Z,9.43
2022-10-11T17:32:06.411Z,11.23
2022-10-11T17:34:28.028Z,9.53
2022-10-11T17:36:49.631Z,4.90
2022-10-11T17:39:14.751Z,3.70
2022-10-11T17:41:36.697Z,3.33
2022-10-11T17:43:58.302Z,4.80
2022-10-11T17:46:22.240Z,4.03
2022-10-11T17:48:44.707Z,3.00
2022-10-11T17:51:11.291Z,3.77
2022-10-11T17:53:32.931Z,4.37
2022-10-11T17:55:54.490Z,3.10
2022-10-11T17:58:17.154Z,3.20
2022-10-11T18:00:39.677Z,3.93
2022-10-11T18:03:01.271Z,3.57
2022-10-11T18:05:22.764Z,4.13
2022-10-11T18:07:44.251Z,3.30
2022-10-11T18:10:06.188Z,4.53
2022-10-11T18:12:27.674Z,4.30
2022-10-11T18:14:51.053Z,4.00
2022-10-11T18:17:12.620Z,4.30
2022-10-11T18:19:34.124Z,4.90
2022-10-11T18:21:55.583Z,6.20
2022-10-11T18:24:17.371Z,5.50
2022-10-11T18:26:39.331Z,4.87
2022-10-11T18:29:00.900Z,4.50
2022-10-11T18:31:25.178Z,3.50
2022-10-11T18:33:47.548Z,3.87
2022-10-11T18:36:10.522Z,3.53
2022-10-11T18:38:33.041Z,3.90
2022-10-11T18:40:54.527Z,3.40
2022-10-11T18:43:16.011Z,3.80
2022-10-11T18:45:37.491Z,3.20
2022-10-11T18:47:58.992Z,3.77
2022-10-11T18:50:20.552Z,3.77
2022-10-11T18:52:44.536Z,3.70
2022-10-11T18:55:06.684Z,3.33
2022-10-11T18:57:28.762Z,3.40
2022-10-11T18:59:50.461Z,3.70
2022-10-11T19:02:12.660Z,3.63
2022-10-11T19:04:34.376Z,3.63
2022-10-11T19:06:55.880Z,3.80
2022-10-11T19:09:22.145Z,3.93
2022-10-11T19:11:43.782Z,3.50
2022-10-11T19:14:08.390Z,4.13
2022-10-11T19:16:30.155Z,4.23
2022-10-11T19:18:52.813Z,4.07
2022-10-11T19:21:14.519Z,3.97
2022-10-11T19:23:39.471Z,3.40
2022-10-11T19:26:01.983Z,3.53
2022-10-11T19:28:23.511Z,3.50
2022-10-11T19:30:44.989Z,3.70
2022-10-11T19:33:07.164Z,3.50
2022-10-11T19:35:28.670Z,4.03
2022-10-11T19:37:50.165Z,3.47
2022-10-11T19:40:12.225Z,3.70
2022-10-11T19:42:34.099Z,3.27
2022-10-11T19:44:55.840Z,3.27
2022-10-11T19:47:17.325Z,3.83
2022-10-11T19:49:39.960Z,4.17
2022-10-11T19:52:01.476Z,3.47
2022-10-11T19:54:23.679Z,3.70
2022-10-11T19:56:45.278Z,4.27
2022-10-11T19:59:07.195Z,3.60
2022-10-11T20:01:31.107Z,3.77
2022-10-11T20:03:58.925Z,3.70
2022-10-11T20:06:22.012Z,3.43
2022-10-11T20:08:44.706Z,3.03
2022-10-11T20:11:10.091Z,3.50
2022-10-11T20:13:35.012Z,3.20
2022-10-11T20:15:58.233Z,3.43
2022-10-11T20:18:19.729Z,3.07
2022-10-11T20:20:51.426Z,3.17
2022-10-11T20:23:17.633Z,3.53
2022-10-11T20:25:39.635Z,4.10
2022-10-11T20:28:01.113Z,4.70
2022-10-11T20:30:22.579Z,3.93
2022-10-11T20:32:44.067Z,3.10
2022-10-11T20:35:05.986Z,3.37
2022-10-11T20:37:27.448Z,3.30
2022-10-11T20:39:48.891Z,3.17
2022-10-11T20:42:10.375Z,3.17
2022-10-11T20:44:31.818Z,3.10
2022-10-11T20:46:53.299Z,3.40
2022-10-11T20:49:14.796Z,3.70
2022-10-11T20:51:39.129Z,4.40
2022-10-11T20:54:02.214Z,4.60
2022-10-11T20:56:23.911Z,3.30
2022-10-11T20:58:45.684Z,3.20
2022-10-11T21:01:10.001Z,4.17
2022-10-11T21:03:31.518Z,4.13
2022-10-11T21:06:02.582Z,3.90
2022-10-11T21:08:24.070Z,5.03
2022-10-11T21:10:53.209Z,3.13
2022-10-11T21:13:14.787Z,2.90
2022-10-11T21:15:36.256Z,4.20
2022-10-11T21:17:58.315Z,4.27
2022-10-11T21:20:20.005Z,3.90
2022-10-11T21:22:41.478Z,3.73
2022-10-11T21:25:03.324Z,3.00
2022-10-11T21:27:25.153Z,3.37
2022-10-11T21:29:46.631Z,3.23
2022-10-11T21:32:12.043Z,3.73
2022-10-11T21:34:35.642Z,2.93
2022-10-11T21:36:57.140Z,3.43
2022-10-11T21:39:18.641Z,3.60
2022-10-11T21:41:42.211Z,3.07
2022-10-11T21:44:04.458Z,3.40
2022-10-11T21:46:47.543Z,3.70
2022-10-11T21:49:09.934Z,3.40
2022-10-11T21:51:32.608Z,3.27
2022-10-11T21:53:55.819Z,3.30
2022-10-11T21:56:17.985Z,3.80
2022-10-11T21:58:39.562Z,4.40
2022-10-11T22:01:01.031Z,4.77
2022-10-11T22:03:22.652Z,4.37
2022-10-11T22:05:45.522Z,4.43
2022-10-11T22:08:06.985Z,4.47
2022-10-11T22:10:28.433Z,4.00
2022-10-11T22:12:49.932Z,4.30
2022-10-11T22:15:11.403Z,5.03
2022-10-11T22:17:32.902Z,5.53
2022-10-11T22:19:54.346Z,7.80
2022-10-11T22:22:15.875Z,5.20
2022-10-11T22:24:37.308Z,5.50
2022-10-11T22:26:58.870Z,6.00
2022-10-11T22:29:20.346Z,6.20
2022-10-11T22:31:42.366Z,4.50
2022-10-11T22:34:03.882Z,4.80
2022-10-11T22:36:26.636Z,3.80
2022-10-11T22:38:48.136Z,3.93
2022-10-11T22:41:10.500Z,3.90
2022-10-11T22:43:32.179Z,3.40
2022-10-11T22:45:53.719Z,3.93
2022-10-11T22:48:15.413Z,4.23
2022-10-11T22:50:36.916Z,4.53
2022-10-11T22:52:58.423Z,3.80
2022-10-11T22:55:20.342Z,3.87
2022-10-11T22:57:41.933Z,4.43
2022-10-11T23:00:04.266Z,3.80
2022-10-11T23:02:25.744Z,4.60
2022-10-11T23:04:47.223Z,4.67
2022-10-11T23:07:08.689Z,5.53
2022-10-11T23:09:31.582Z,2.77
2022-10-11T23:11:53.072Z,3.00
2022-10-11T23:14:14.613Z,3.20
2022-10-11T23:16:36.101Z,2.97
2022-10-11T23:18:57.661Z,4.13
2022-10-11T23:21:19.460Z,3.13
2022-10-11T23:23:40.954Z,2.80
2022-10-11T23:26:05.466Z,2.70
2022-10-11T23:28:26.993Z,2.37
2022-10-11T23:30:48.562Z,3.20
2022-10-11T23:33:10.012Z,2.33
2022-10-11T23:35:31.873Z,2.40
2022-10-11T23:37:54.289Z,2.70
2022-10-11T23:40:16.037Z,3.03
2022-10-11T23:42:37.525Z,3.60
2022-10-11T23:44:59.264Z,4.40
2022-10-11T23:47:20.781Z,3.47
2022-10-11T23:49:42.251Z,3.20
2022-10-11T23:52:03.745Z,2.60
2022-10-11T23:54:25.279Z,3.03
2022-10-11T23:56:46.760Z,4.93
2022-10-11T23:59:08.259Z,4.87
